Terminal Aerodrome Forecast
Issued by NWS Louisville, KY

Home | Current Version | Previous Version | Text Only | Print | Product List | Glossary On
Versions: 1 2 3 4 5 6 7 8 9 10 11 12 13 14 15 16 17 18 19
000
FTUS43 KLMK 011100 RRA
TAFLEX
TAF
KLEX 011141Z 0112/0212 17007KT 6SM -SHRA BR FEW015 OVC060
     FM011400 21008KT 5SM -RA BR FEW009 OVC015
     FM011600 21010KT 4SM -RA BR OVC009
     FM020300 29008KT 6SM BR OVC009=

USA.gov is the U.S. government's official web portal to all federal, state and local government web resources and services.